createdAt,value
2023-04-27T00:03:36.435Z,145.30719
2023-04-27T00:08:37.839Z,152.81356
2023-04-27T00:13:39.142Z,159.38462
2023-04-27T00:18:40.618Z,156.41379
2023-04-27T00:23:42.097Z,154.9589
2023-04-27T00:28:43.488Z,147.30033
2023-04-27T00:33:44.969Z,145.96721
2023-04-27T00:38:46.465Z,140.17834
2023-04-27T00:43:47.873Z,145.96721
2023-04-27T00:48:49.212Z,139.55556
2023-04-27T00:53:50.780Z,147.30033
2023-04-27T00:58:52.067Z,144.65147
2023-04-27T01:03:53.509Z,140.17834
2023-04-27T01:08:55.387Z,131.23404
2023-04-27T01:13:56.749Z,126.78932
2023-04-27T01:18:58.019Z,126.24852
2023-04-27T01:23:59.384Z,126.24852
2023-04-27T01:29:00.718Z,129.54217
2023-04-27T01:34:02.064Z,126.78932
2023-04-27T01:39:03.308Z,128.98498
2023-04-27T01:44:04.689Z,124.11696
2023-04-27T01:49:05.974Z,125.17647
2023-04-27T01:54:07.586Z,124.64516
2023-04-27T01:59:08.867Z,126.78932
2023-04-27T02:04:10.350Z,129.54217
2023-04-27T02:09:12.047Z,134.12346
2023-04-27T02:14:13.526Z,126.24852
2023-04-27T02:19:15.163Z,122.03468
2023-04-27T02:24:16.778Z,126.78932
2023-04-27T02:29:18.043Z,119
2023-04-27T02:34:19.723Z,115.58774
2023-04-27T02:39:20.976Z,114.63712
2023-04-27T02:44:22.451Z,116.06704
2023-04-27T02:49:24.020Z,102.35476
2023-04-27T02:54:25.600Z,102.35476
2023-04-27T02:59:26.879Z,101.14286
2023-04-27T03:04:28.690Z,106.10526
2023-04-27T03:09:30.258Z,101.94872
2023-04-27T03:14:31.595Z,103.17313
2023-04-27T03:19:32.942Z,103.17313
2023-04-27T03:24:34.452Z,102.35476
2023-04-27T03:29:35.902Z,100.743
2023-04-27T03:34:37.241Z,99.94937
2023-04-27T03:39:38.618Z,99.16373
2023-04-27T03:44:40.084Z,94.61125
2023-04-27T03:49:41.483Z,93.87835
2023-04-27T03:54:42.882Z,97.23383
2023-04-27T03:59:44.506Z,94.98039
2023-04-27T04:04:45.954Z,94.61125
2023-04-27T04:09:47.786Z,96.47525
2023-04-27T04:14:49.299Z,94.61125
2023-04-27T04:19:50.565Z,93.15254
2023-04-27T04:24:51.957Z,89.97156
2023-04-27T04:29:53.230Z,89.97156
2023-04-27T04:34:54.687Z,91.36842
2023-04-27T04:39:56.292Z,92.07692
2023-04-27T04:44:57.570Z,89.28302
2023-04-27T04:49:59.161Z,86.26328
2023-04-27T04:55:00.587Z,84.9611
2023-04-27T05:00:01.999Z,81.80761
2023-04-27T05:05:03.440Z,79.68282
2023-04-27T05:10:04.751Z,76.75862
2023-04-27T05:15:06.207Z,74.23256
2023-04-27T05:20:07.698Z,73.68421
2023-04-27T05:25:08.964Z,75.06383
2023-04-27T05:30:10.455Z,80.88889
2023-04-27T05:35:11.703Z,84.63927
2023-04-27T05:40:13.330Z,84.63927
2023-04-27T05:45:14.708Z,84.63927
2023-04-27T05:50:16.086Z,84.31891
2023-04-27T05:55:17.489Z,88.2623
2023-04-27T06:00:18.834Z,85.93548
2023-04-27T06:05:20.331Z,84
2023-04-27T06:10:21.685Z,82.73874
2023-04-27T06:15:22.950Z,84.63927
2023-04-27T06:20:24.232Z,84.9611
2023-04-27T06:25:27.183Z,85.93548
2023-04-27T06:30:28.782Z,102.35476
2023-04-27T06:35:30.112Z,105.67979
2023-04-27T06:40:31.332Z,104.41667
2023-04-27T06:45:32.734Z,116.06704
2023-04-27T06:50:34.374Z,115.58774
2023-04-27T06:55:36.058Z,125.17647
2023-04-27T07:00:37.508Z,125.17647
2023-04-27T07:05:39.208Z,136.5
2023-04-27T07:10:40.790Z,128.43114
2023-04-27T07:15:42.336Z,125.17647
2023-04-27T07:20:44.087Z,125.71091
2023-04-27T07:25:45.681Z,133.53846
2023-04-27T07:30:47.390Z,128.98498
2023-04-27T07:35:49.133Z,135.30435
2023-04-27T07:40:50.462Z,135.30435
2023-04-27T07:45:52.118Z,140.80511
2023-04-27T07:50:53.415Z,156.41379
2023-04-27T07:55:54.790Z,156.41379
2023-04-27T08:00:56.202Z,152.81356
2023-04-27T08:05:58.194Z,155.68385
2023-04-27T08:11:00.083Z,155.68385
2023-04-27T08:16:02.823Z,155.68385
2023-04-27T08:21:04.800Z,168.81752
2023-04-27T08:26:06.681Z,182.75969
2023-04-27T08:31:09.008Z,181.83784
2023-04-27T08:36:11.037Z,173.85075
2023-04-27T08:41:21.332Z,176.45283
2023-04-27T08:46:23.921Z,171.30627
2023-04-27T08:51:25.503Z,175.57895
2023-04-27T08:56:26.992Z,176.45283
2023-04-27T09:01:28.525Z,168
2023-04-27T09:06:29.930Z,168
2023-04-27T09:11:31.279Z,183.68872
2023-04-27T09:16:32.899Z,164.78853
2023-04-27T09:21:34.344Z,176.45283
2023-04-27T09:26:35.951Z,174.71161
2023-04-27T09:31:37.885Z,208.37768
2023-04-27T09:36:39.579Z,195.42857
2023-04-27T09:41:41.199Z,203.91561
2023-04-27T09:46:42.976Z,188.44444
2023-04-27T09:51:44.924Z,197.49794
2023-04-27T09:56:46.683Z,196.45902
2023-04-27T10:01:48.395Z,201.74059
2023-04-27T10:06:50.136Z,196.45902
2023-04-27T10:11:51.898Z,199.60166
2023-04-27T10:16:53.874Z,207.24786
2023-04-27T10:21:55.741Z,214.17544
2023-04-27T10:26:57.837Z,198.54545
2023-04-27T10:31:59.956Z,203.91561
2023-04-27T10:37:02.230Z,200.66667
2023-04-27T10:42:05.036Z,207.24786
2023-04-27T10:47:07.043Z,215.36564
2023-04-27T10:52:09.088Z,201.74059
2023-04-27T10:57:11.207Z,217.77778
2023-04-27T11:02:13.230Z,203.91561
2023-04-27T11:07:15.312Z,196.45902
2023-04-27T11:12:16.932Z,216.56637
2023-04-27T11:17:18.474Z,212.99563
2023-04-27T11:22:20.212Z,207.24786
2023-04-27T11:27:22.260Z,180.92308
2023-04-27T11:32:24.060Z,164.78853
2023-04-27T11:37:25.664Z,151.40741
2023-04-27T11:42:27.520Z,144
2023-04-27T11:47:29.486Z,138.32177
2023-04-27T11:52:31.369Z,151.40741
2023-04-27T11:57:33.296Z,156.41379
2023-04-27T12:02:35.354Z,156.41379
2023-04-27T12:07:37.434Z,161.66784
2023-04-27T12:12:39.675Z,161.66784
2023-04-27T12:17:41.736Z,171.30627
2023-04-27T12:22:44.329Z,166.38267
2023-04-27T12:27:46.253Z,179.1145
2023-04-27T12:32:49.081Z,179.1145
2023-04-27T12:37:51.629Z,191.38956
2023-04-27T12:42:53.722Z,200.66667
2023-04-27T12:48:02.761Z,179.1145
2023-04-27T12:53:06.006Z,193.39271
2023-04-27T12:58:07.869Z,196.45902
2023-04-27T13:03:10.014Z,193.39271
2023-04-27T13:08:11.957Z,184.625
2023-04-27T13:13:13.783Z,186.51969
2023-04-27T13:18:15.706Z,197.49794
2023-04-27T13:23:17.562Z,189.41833
2023-04-27T13:28:19.786Z,198.54545
2023-04-27T13:33:23.533Z,185.56863
2023-04-27T13:38:26.327Z,205.01695
2023-04-27T13:43:29.252Z,195.42857
2023-04-27T13:48:32.220Z,200.66667
2023-04-27T13:53:35.048Z,198.54545
2023-04-27T13:58:37.085Z,187.47826
2023-04-27T14:03:40.341Z,183.68872
2023-04-27T14:08:43.392Z,182.75969
2023-04-27T14:13:45.014Z,187.47826
2023-04-27T14:18:46.441Z,200.66667
2023-04-27T14:23:48.113Z,183.68872
2023-04-27T14:28:50.098Z,196.45902
2023-04-27T14:33:52.789Z,195.42857
2023-04-27T14:38:55.808Z,193.39271
2023-04-27T14:43:58.688Z,182.75969
2023-04-27T14:49:00.873Z,188.44444
2023-04-27T14:54:02.622Z,159.38462
2023-04-27T14:59:04.457Z,180.92308
2023-04-27T15:04:06.114Z,186.51969
2023-04-27T15:09:08.030Z,177.33333
2023-04-27T15:14:09.576Z,177.33333
2023-04-27T15:19:11.223Z,170.47059
2023-04-27T15:24:13.202Z,157.14879
2023-04-27T15:29:15.075Z,164
2023-04-27T15:34:16.856Z,152.81356
2023-04-27T15:39:18.485Z,161.66784
2023-04-27T15:44:20.487Z,147.30033
2023-04-27T15:49:22.758Z,149.33333
2023-04-27T15:54:25.315Z,138.93671
2023-04-27T15:59:27.778Z,140.80511
2023-04-27T16:04:30.413Z,142.70968
2023-04-27T16:09:32.298Z,132.95706
2023-04-27T16:14:34.127Z,127.8806
2023-04-27T16:19:36.352Z,127.8806
2023-04-27T16:24:38.039Z,115.11111
2023-04-27T16:29:39.804Z,112.30601
2023-04-27T16:34:41.475Z,109.14745
2023-04-27T16:39:43.148Z,106.96296
2023-04-27T16:44:45.193Z,101.94872
2023-04-27T16:49:47.604Z,101.54476
2023-04-27T16:54:50.370Z,107.82979
2023-04-27T16:59:53.089Z,108.70588
2023-04-27T17:04:55.414Z,117.03371
2023-04-27T17:09:57.493Z,116.54902
2023-04-27T17:14:59.555Z,118.0113
2023-04-27T17:20:01.638Z,114.16575
2023-04-27T17:25:04.051Z,120.5043
2023-04-27T17:30:08.260Z,121.01149
2023-04-27T17:35:10.525Z,122.03468
2023-04-27T17:40:12.442Z,121.52161
2023-04-27T17:45:14.739Z,119
2023-04-27T17:50:17.116Z,114.16575
2023-04-27T17:55:19.610Z,110.03774
2023-04-27T18:00:22.774Z,108.70588
2023-04-27T18:05:26.297Z,110.03774
2023-04-27T18:10:29.180Z,117.52113
2023-04-27T18:15:32.024Z,120
2023-04-27T18:20:34.710Z,118.0113
2023-04-27T18:25:37.109Z,115.58774
2023-04-27T18:30:39.313Z,110.93767
2023-04-27T18:35:41.337Z,109.5914
2023-04-27T18:40:43.323Z,108.70588
2023-04-27T18:45:45.320Z,107.82979
2023-04-27T18:50:47.408Z,102.35476
2023-04-27T18:55:49.322Z,105.67979
2023-04-27T19:00:51.723Z,104.83551
2023-04-27T19:05:54.448Z,104.41667
2023-04-27T19:10:58.497Z,105.25654
2023-04-27T19:16:01.741Z,109.5914
2023-04-27T19:21:03.942Z,106.10526
2023-04-27T19:26:13.155Z,107.39523
2023-04-27T19:31:16.289Z,105.25654
2023-04-27T19:36:18.115Z,106.10526
2023-04-27T19:41:19.715Z,103.17313
2023-04-27T19:46:21.708Z,99.16373
2023-04-27T19:51:23.497Z,102.76289
2023-04-27T19:56:26.134Z,107.39523
2023-04-27T20:01:28.135Z,106.10526
2023-04-27T20:06:29.888Z,104
2023-04-27T20:11:31.577Z,100.743
2023-04-27T20:16:33.540Z,101.94872
2023-04-27T20:21:36.477Z,100.34518
2023-04-27T20:26:39.053Z,93.87835
2023-04-27T20:31:41.655Z,97.61596
2023-04-27T20:36:43.700Z,95.72414
2023-04-27T20:41:45.752Z,95.35135
2023-04-27T20:46:47.826Z,97.61596
2023-04-27T20:51:50.076Z,98.77387
2023-04-27T20:56:51.682Z,98.77387
2023-04-27T21:01:53.092Z,98.77387
2023-04-27T21:06:54.378Z,96.47525
2023-04-27T21:11:55.672Z,96.8536
2023-04-27T21:16:57.075Z,97.23383
2023-04-27T21:21:58.711Z,100.34518
2023-04-27T21:27:00.115Z,109.5914
2023-04-27T21:32:01.482Z,104.41667
2023-04-27T21:37:02.785Z,98
2023-04-27T21:42:04.129Z,92.79227
2023-04-27T21:47:05.605Z,91.72182
2023-04-27T21:52:06.993Z,103.17313
2023-04-27T21:57:08.317Z,122.03468
2023-04-27T22:02:09.604Z,146.63158
2023-04-27T22:07:10.890Z,147.97351
2023-04-27T22:12:12.460Z,157.88889
2023-04-27T22:17:13.973Z,154.23891
2023-04-27T22:22:15.372Z,157.14879
2023-04-27T22:27:17.008Z,157.14879
2023-04-27T22:32:18.748Z,152.81356
2023-04-27T22:37:20.350Z,147.30033
2023-04-27T22:42:21.952Z,146.63158
2023-04-27T22:47:23.630Z,144.65147
2023-04-27T22:52:25.014Z,145.96721
2023-04-27T22:57:26.358Z,146.63158
2023-04-27T23:02:28.190Z,146.63158
2023-04-27T23:07:29.968Z,154.9589
2023-04-27T23:12:31.625Z,151.40741
2023-04-27T23:17:33.224Z,149.33333
2023-04-27T23:22:34.558Z,148.65116
2023-04-27T23:27:35.908Z,150.71141
2023-04-27T23:32:37.367Z,150.71141
2023-04-27T23:37:38.764Z,148.65116
2023-04-27T23:42:40.040Z,145.96721
2023-04-27T23:47:41.730Z,150.71141
2023-04-27T23:52:43.189Z,144
2023-04-27T23:57:44.586Z,147.97351
